createdAt,value
2018-12-02T00:02:17.607Z,99279.76
2018-12-02T00:07:29.526Z,99281.48
2018-12-02T00:10:02.634Z,99277.42
2018-12-02T00:12:45.212Z,99274.18
2018-12-02T00:15:24.102Z,99270.25
2018-12-02T00:17:59.742Z,99268.29
2018-12-02T00:20:28.588Z,99259.19
2018-12-02T00:22:58.307Z,99259.19
2018-12-02T00:25:27.227Z,99255.46
2018-12-02T00:27:58.682Z,99246.78
2018-12-02T00:30:29.551Z,99240.76
2018-12-02T00:32:59.397Z,99238.00
2018-12-02T00:35:30.292Z,99235.13
2018-12-02T00:38:07.088Z,99237.06
2018-12-02T00:40:36.925Z,99229.41
2018-12-02T00:43:07.428Z,99234.61
2018-12-02T00:45:44.624Z,99226.94
2018-12-02T00:48:17.842Z,99227.63
2018-12-02T00:50:52.267Z,99225.14
2018-12-02T00:53:24.287Z,99225.58
2018-12-02T00:55:59.257Z,99219.22
2018-12-02T00:58:32.658Z,99219.91
2018-12-02T01:01:01.631Z,99218.27
2018-12-02T01:03:31.443Z,99199.23
2018-12-02T01:06:02.177Z,99206.27
2018-12-02T01:08:34.031Z,99201.84
2018-12-02T01:11:09.829Z,99192.50
2018-12-02T01:13:39.300Z,99197.29
2018-12-02T01:16:11.002Z,99191.75
2018-12-02T01:18:42.692Z,99186.84
2018-12-02T01:21:15.897Z,99183.72
2018-12-02T01:23:44.692Z,99187.85
2018-12-02T01:26:15.027Z,99195.42
2018-12-02T01:28:49.129Z,99172.12
2018-12-02T01:31:25.422Z,99172.67
2018-12-02T01:33:56.212Z,99170.70
2018-12-02T01:36:24.952Z,99163.20
2018-12-02T01:38:54.042Z,99167.75
2018-12-02T01:41:25.592Z,99171.20
2018-12-02T01:43:56.257Z,99174.80
2018-12-02T01:46:26.087Z,99154.55
2018-12-02T01:48:55.082Z,99144.06
2018-12-02T01:51:28.862Z,99140.75
2018-12-02T01:53:57.717Z,99130.72
2018-12-02T01:56:26.137Z,99135.96
2018-12-02T01:58:57.112Z,99125.37
2018-12-02T02:01:25.909Z,99123.27
2018-12-02T02:03:56.727Z,99114.72
2018-12-02T02:06:29.107Z,99108.16
2018-12-02T02:08:59.657Z,99110.19
2018-12-02T02:11:31.882Z,99099.75
2018-12-02T02:14:00.856Z,99094.20
2018-12-02T02:16:34.587Z,99089.39
2018-12-02T02:19:02.797Z,99083.03
2018-12-02T02:21:32.656Z,99084.23
2018-12-02T02:24:03.757Z,99072.73
2018-12-02T02:26:36.689Z,99063.60
2018-12-02T02:29:06.646Z,99049.01
2018-12-02T02:31:38.040Z,99052.12
2018-12-02T02:34:12.033Z,99062.13
2018-12-02T02:36:44.891Z,99048.52
2018-12-02T02:39:16.031Z,99049.20
2018-12-02T02:41:45.171Z,99027.53
2018-12-02T02:44:22.017Z,99030.63
2018-12-02T02:47:02.821Z,99026.88
2018-12-02T02:49:40.209Z,99031.38
2018-12-02T02:52:12.321Z,99020.16
2018-12-02T02:54:41.596Z,99001.86
2018-12-02T02:57:12.662Z,99007.92
2018-12-02T02:59:43.896Z,99009.54
2018-12-02T03:02:30.152Z,98999.91
2018-12-02T03:05:02.848Z,98998.73
2018-12-02T03:10:14.302Z,98992.67
2018-12-02T03:12:45.784Z,98985.11
2018-12-02T03:15:19.637Z,98974.97
2018-12-02T03:17:48.511Z,98975.44
2018-12-02T03:20:21.572Z,98975.62
2018-12-02T03:22:52.456Z,98980.87
2018-12-02T03:25:22.112Z,98978.24
2018-12-02T03:27:54.781Z,98983.84
2018-12-02T03:30:29.953Z,98980.85
2018-12-02T03:33:02.748Z,98988.73
2018-12-02T03:35:33.692Z,98990.36
2018-12-02T03:38:03.790Z,98985.74
2018-12-02T03:40:32.835Z,98970.36
2018-12-02T03:43:01.520Z,98960.17
2018-12-02T03:45:31.176Z,98963.13
2018-12-02T03:48:01.330Z,98962.63
2018-12-02T03:50:31.031Z,98960.17
2018-12-02T03:52:59.474Z,98959.49
2018-12-02T03:55:27.626Z,98948.95
2018-12-02T03:57:57.042Z,98938.20
2018-12-02T04:00:26.602Z,98938.38
2018-12-02T04:03:00.172Z,98943.75
2018-12-02T04:05:28.571Z,98938.51
2018-12-02T04:07:57.266Z,98931.63
2018-12-02T04:10:25.897Z,98927.89
2018-12-02T04:13:00.037Z,98930.84
2018-12-02T04:15:28.691Z,98924.09
2018-12-02T04:17:57.661Z,98922.83
2018-12-02T04:20:25.921Z,98924.77
2018-12-02T04:22:55.752Z,98926.76
2018-12-02T04:25:25.914Z,98920.33
2018-12-02T04:27:59.091Z,98918.70
2018-12-02T04:30:27.525Z,98919.47
2018-12-02T04:32:58.049Z,98925.22
2018-12-02T04:35:36.275Z,98926.07
2018-12-02T04:38:16.558Z,98927.64
2018-12-02T04:40:51.422Z,98932.08
2018-12-02T04:46:03.656Z,98920.72
2018-12-02T04:48:33.384Z,98926.91
2018-12-02T04:51:07.827Z,98923.70
2018-12-02T04:53:43.927Z,98919.02
2018-12-02T04:56:15.429Z,98907.78
2018-12-02T04:58:50.344Z,98902.85
2018-12-02T05:01:23.810Z,98906.73
2018-12-02T05:03:56.589Z,98898.17
2018-12-02T05:06:26.825Z,98892.16
2018-12-02T05:08:55.314Z,98883.80
2018-12-02T05:11:23.603Z,98882.74
2018-12-02T05:13:51.811Z,98876.19
2018-12-02T05:16:20.970Z,98867.68
2018-12-02T05:18:49.873Z,98871.86
2018-12-02T05:21:18.198Z,98863.32
2018-12-02T05:23:46.548Z,98850.11
2018-12-02T05:26:14.820Z,98847.55
2018-12-02T05:28:42.966Z,98855.05
2018-12-02T05:31:11.473Z,98850.03
2018-12-02T05:33:39.768Z,98841.95
2018-12-02T05:36:07.918Z,98832.33
2018-12-02T05:38:37.645Z,98838.52
2018-12-02T05:41:07.097Z,98833.26
2018-12-02T05:43:35.262Z,98826.28
2018-12-02T05:46:03.672Z,98825.46
2018-12-02T05:48:34.869Z,98829.67
2018-12-02T05:51:06.040Z,98821.02
2018-12-02T05:53:34.239Z,98824.95
2018-12-02T05:56:03.616Z,98818.70
2018-12-02T05:58:32.388Z,98813.90
2018-12-02T06:01:00.466Z,98814.77
2018-12-02T06:03:28.842Z,98807.36
2018-12-02T06:05:56.957Z,98807.16
2018-12-02T06:08:25.127Z,98809.59
2018-12-02T06:10:53.347Z,98799.72
2018-12-02T06:13:21.808Z,98803.65
2018-12-02T06:15:49.896Z,98799.40
2018-12-02T06:18:18.687Z,98789.38
2018-12-02T06:20:46.804Z,98793.31
2018-12-02T06:23:15.056Z,98788.55
2018-12-02T06:25:46.445Z,98780.52
2018-12-02T06:28:11.482Z,98773.98
2018-12-02T06:30:39.685Z,98776.27
2018-12-02T06:33:07.828Z,98766.48
2018-12-02T06:35:36.978Z,98768.61
2018-12-02T06:38:06.330Z,98768.44
2018-12-02T06:40:34.432Z,98771.06
2018-12-02T06:43:02.606Z,98765.94
2018-12-02T06:45:31.151Z,98769.23
2018-12-02T06:47:59.325Z,98758.63
2018-12-02T06:50:27.924Z,98760.95
2018-12-02T06:52:59.686Z,98767.30
2018-12-02T06:55:31.416Z,98765.50
2018-12-02T06:58:09.425Z,98760.45
2018-12-02T07:00:52.880Z,98766.50
2018-12-02T07:03:38.135Z,98761.44
2018-12-02T07:06:06.570Z,98761.08
2018-12-02T07:08:34.765Z,98756.66
2018-12-02T07:11:02.895Z,98760.77
2018-12-02T07:13:30.950Z,98759.00
2018-12-02T07:15:59.056Z,98750.47
2018-12-02T07:18:27.968Z,98754.23
2018-12-02T07:20:55.961Z,98750.47
2018-12-02T07:23:24.305Z,98750.98
2018-12-02T07:25:52.376Z,98741.69
2018-12-02T07:28:20.562Z,98738.06
2018-12-02T07:30:48.633Z,98732.14
2018-12-02T07:33:16.716Z,98733.97
2018-12-02T07:35:44.857Z,98726.28
2018-12-02T07:38:25.146Z,98724.66
2018-12-02T07:40:55.595Z,98726.44
2018-12-02T07:43:23.855Z,98729.78
2018-12-02T07:45:52.146Z,98727.61
2018-12-02T07:48:20.233Z,98728.47
2018-12-02T07:50:48.396Z,98724.42
2018-12-02T07:53:16.746Z,98718.83
2018-12-02T07:55:44.865Z,98712.97
2018-12-02T07:58:15.673Z,98714.63
2018-12-02T08:00:44.322Z,98708.90
2018-12-02T08:03:12.478Z,98714.63
2018-12-02T08:05:40.738Z,98708.73
2018-12-02T08:08:08.958Z,98702.86
2018-12-02T08:10:37.805Z,98707.95
2018-12-02T08:13:06.682Z,98710.59
2018-12-02T08:15:34.947Z,98705.54
2018-12-02T08:18:03.147Z,98714.07
2018-12-02T08:20:31.731Z,98704.23
2018-12-02T08:22:59.846Z,98692.44
2018-12-02T08:25:29.085Z,98700.48
2018-12-02T08:27:57.236Z,98697.36
2018-12-02T08:30:26.050Z,98693.89
2018-12-02T08:32:55.096Z,98687.20
2018-12-02T08:35:26.557Z,98680.34
2018-12-02T08:37:57.750Z,98684.58
2018-12-02T08:40:26.151Z,98678.40
2018-12-02T08:42:54.169Z,98684.77
2018-12-02T08:45:22.371Z,98679.08
2018-12-02T08:47:50.327Z,98679.75
2018-12-02T08:50:19.404Z,98683.47
2018-12-02T08:52:49.672Z,98675.86
2018-12-02T08:55:18.699Z,98668.86
2018-12-02T08:57:47.314Z,98674.56
2018-12-02T09:00:20.293Z,98650.52
2018-12-02T09:02:54.805Z,98671.98
2018-12-02T09:05:23.012Z,98668.38
2018-12-02T09:07:52.382Z,98672.16
2018-12-02T09:10:22.687Z,98662.98
2018-12-02T09:12:52.664Z,98672.66
2018-12-02T09:15:20.739Z,98668.41
2018-12-02T09:17:49.002Z,98667.59
2018-12-02T09:20:30.470Z,98660.23
2018-12-02T09:22:58.606Z,98657.44
2018-12-02T09:25:26.713Z,98657.44
2018-12-02T09:27:54.934Z,98662.72
2018-12-02T09:30:24.441Z,98649.92
2018-12-02T09:32:52.575Z,98657.33
2018-12-02T09:35:20.737Z,98661.58
2018-12-02T09:37:49.041Z,98652.09
2018-12-02T09:40:17.127Z,98651.09
2018-12-02T09:42:48.460Z,98629.81
2018-12-02T09:45:18.798Z,98635.20
2018-12-02T09:47:46.962Z,98644.73
2018-12-02T09:50:15.827Z,98625.09
2018-12-02T09:52:43.901Z,98611.50
2018-12-02T09:55:47.207Z,98624.92
2018-12-02T09:58:25.715Z,98620.53
2018-12-02T10:00:55.272Z,98602.34
2018-12-02T10:03:23.313Z,98617.09
2018-12-02T10:05:51.290Z,98604.45
2018-12-02T10:08:19.447Z,98603.66
2018-12-02T10:10:47.558Z,98596.78
2018-12-02T10:13:17.825Z,98598.44
2018-12-02T10:15:45.953Z,98595.15
2018-12-02T10:18:14.687Z,98602.20
2018-12-02T10:20:44.485Z,98608.92
2018-12-02T10:23:12.765Z,98588.62
2018-12-02T10:25:40.980Z,98601.91
2018-12-02T10:28:09.935Z,98584.36
2018-12-02T10:30:39.104Z,98592.57
2018-12-02T10:33:07.332Z,98581.91
2018-12-02T10:35:35.706Z,98573.07
2018-12-02T10:38:03.985Z,98580.78
2018-12-02T10:40:34.677Z,98587.50
2018-12-02T10:43:02.905Z,98588.81
2018-12-02T10:45:31.280Z,98581.47
2018-12-02T10:48:01.171Z,98581.13
2018-12-02T10:50:31.399Z,98571.13
2018-12-02T10:53:00.999Z,98569.66
2018-12-02T10:55:51.104Z,98569.48
2018-12-02T10:58:22.205Z,98562.61
2018-12-02T11:00:56.860Z,98568.02
2018-12-02T11:03:24.992Z,98571.63
2018-12-02T11:05:54.132Z,98568.03
2018-12-02T11:08:22.387Z,98556.22
2018-12-02T11:10:51.985Z,98553.43
2018-12-02T11:13:20.147Z,98559.83
2018-12-02T11:15:48.159Z,98546.19
2018-12-02T11:18:16.361Z,98552.28
2018-12-02T11:20:44.542Z,98546.86
2018-12-02T11:23:12.762Z,98558.66
2018-12-02T11:25:40.842Z,98549.97
2018-12-02T11:28:10.347Z,98548.64
2018-12-02T11:30:38.588Z,98547.66
2018-12-02T11:33:07.013Z,98550.10
2018-12-02T11:35:35.039Z,98551.25
2018-12-02T11:38:03.222Z,98552.56
2018-12-02T11:40:31.627Z,98552.22
2018-12-02T11:43:00.272Z,98556.13
2018-12-02T11:45:28.379Z,98556.77
2018-12-02T11:47:56.472Z,98559.74
2018-12-02T11:50:25.692Z,98544.95
2018-12-02T11:52:54.124Z,98562.19
2018-12-02T11:55:22.710Z,98557.44
2018-12-02T11:57:51.042Z,98561.35
2018-12-02T12:00:27.070Z,98557.25
2018-12-02T12:02:56.486Z,98562.98
2018-12-02T12:05:24.740Z,98554.75
2018-12-02T12:07:52.885Z,98557.70
2018-12-02T12:10:24.540Z,98554.88
2018-12-02T12:13:00.475Z,98558.98
2018-12-02T12:15:29.700Z,98547.15
2018-12-02T12:17:58.485Z,98557.31
2018-12-02T12:20:30.615Z,98555.66
2018-12-02T12:22:58.745Z,98557.44
2018-12-02T12:25:27.120Z,98552.60
2018-12-02T12:27:56.285Z,98543.09
2018-12-02T12:30:30.020Z,98546.18
2018-12-02T12:32:58.191Z,98543.04
2018-12-02T12:35:26.472Z,98546.64
2018-12-02T12:37:54.680Z,98545.47
2018-12-02T12:40:28.380Z,98541.67
2018-12-02T12:42:58.615Z,98548.37
2018-12-02T12:45:26.899Z,98551.14
2018-12-02T12:47:55.010Z,98554.77
2018-12-02T12:50:23.185Z,98550.43
2018-12-02T12:52:51.350Z,98551.09
2018-12-02T12:55:24.035Z,98554.36
2018-12-02T12:57:52.235Z,98544.20
2018-12-02T13:00:21.910Z,98551.28
2018-12-02T13:02:50.015Z,98555.03
2018-12-02T13:05:20.436Z,98552.91
2018-12-02T13:07:48.672Z,98561.92
2018-12-02T13:10:17.725Z,98562.27
2018-12-02T13:12:45.961Z,98553.67
2018-12-02T13:15:20.905Z,98542.02
2018-12-02T13:17:59.689Z,98553.67
2018-12-02T13:20:29.642Z,98553.51
2018-12-02T13:22:57.673Z,98549.52
2018-12-02T13:25:25.895Z,98552.99
2018-12-02T13:27:53.970Z,98564.84
2018-12-02T13:30:22.230Z,98565.65
2018-12-02T13:32:51.705Z,98582.23
2018-12-02T13:35:19.913Z,98582.23
2018-12-02T13:37:48.563Z,98573.80
2018-12-02T13:40:18.517Z,98563.41
2018-12-02T13:42:48.997Z,98573.93
2018-12-02T13:45:19.222Z,98580.47
2018-12-02T13:47:47.292Z,98574.99
2018-12-02T13:50:17.763Z,98582.87
2018-12-02T13:52:46.921Z,98585.10
2018-12-02T13:55:16.624Z,98584.80
2018-12-02T13:57:45.262Z,98580.32
2018-12-02T14:00:17.981Z,98577.47
2018-12-02T14:02:47.181Z,98587.86
2018-12-02T14:05:16.180Z,98584.20
2018-12-02T14:07:44.386Z,98583.55
2018-12-02T14:10:15.311Z,98587.14
2018-12-02T14:12:46.671Z,98586.28
2018-12-02T14:15:24.417Z,98590.72
2018-12-02T14:17:55.350Z,98596.44
2018-12-02T14:20:23.572Z,98600.36
2018-12-02T14:22:51.887Z,98604.31
2018-12-02T14:25:20.058Z,98609.26
2018-12-02T14:27:50.457Z,98606.41
2018-12-02T14:30:19.732Z,98604.39
2018-12-02T14:32:47.976Z,98614.62
2018-12-02T14:35:16.392Z,98626.31
2018-12-02T14:42:14.099Z,98620.53
2018-12-02T14:45:24.226Z,98625.08
2018-12-02T14:47:52.450Z,98627.89
2018-12-02T14:53:32.373Z,98625.17
2018-12-02T14:56:01.420Z,98636.56
2018-12-02T14:58:49.401Z,98628.80
2018-12-02T21:43:12.661Z,98792.52
2018-12-02T21:45:41.207Z,98794.97
2018-12-02T21:48:15.249Z,98794.50
2018-12-02T21:50:45.552Z,98788.88
2018-12-02T21:53:13.806Z,98790.01
2018-12-02T21:55:42.171Z,98786.91
2018-12-02T21:58:10.541Z,98784.73
2018-12-02T22:00:45.136Z,98787.92
2018-12-02T22:03:20.175Z,98784.78
2018-12-02T22:05:48.521Z,98778.95
2018-12-02T22:08:18.982Z,98782.25
2018-12-02T22:10:47.983Z,98782.61
2018-12-02T22:13:16.727Z,98775.34
2018-12-02T22:15:48.339Z,98778.80
2018-12-02T22:18:20.028Z,98777.68
2018-12-02T22:20:49.298Z,98773.03
2018-12-02T22:23:17.516Z,98767.61
2018-12-02T22:25:45.717Z,98768.66
2018-12-02T22:28:18.413Z,98773.08
2018-12-02T22:30:54.798Z,98771.76
2018-12-02T22:33:24.372Z,98771.56
2018-12-02T22:35:52.537Z,98767.14
2018-12-02T22:38:20.807Z,98765.33
2018-12-02T22:40:48.956Z,98779.67
2018-12-02T22:43:17.360Z,98778.19
2018-12-02T22:45:46.510Z,98772.77
2018-12-02T22:48:22.476Z,98771.61
2018-12-02T22:50:51.016Z,98771.61
2018-12-02T22:53:19.225Z,98767.66
2018-12-02T22:55:48.150Z,98776.22
2018-12-02T22:58:16.488Z,98772.27
2018-12-02T23:00:50.315Z,98776.21
2018-12-02T23:03:18.605Z,98776.83
2018-12-02T23:05:47.290Z,98777.48
2018-12-02T23:08:15.507Z,98779.30
2018-12-02T23:10:43.600Z,98772.77
2018-12-02T23:13:11.750Z,98773.22
2018-12-02T23:15:41.563Z,98767.61
2018-12-02T23:18:11.890Z,98760.75
2018-12-02T23:20:43.866Z,98765.83
2018-12-02T23:23:12.084Z,98766.84
2018-12-02T23:25:40.218Z,98769.78
2018-12-02T23:28:08.494Z,98769.13
2018-12-02T23:30:36.665Z,98765.83
2018-12-02T23:33:06.362Z,98765.48
2018-12-02T23:35:34.635Z,98772.42
2018-12-02T23:38:02.822Z,98765.33
2018-12-02T23:40:30.862Z,98771.61
2018-12-02T23:42:58.885Z,98775.05
2018-12-02T23:45:27.058Z,98769.98
2018-12-02T23:47:55.367Z,98763.05
2018-12-02T23:50:24.125Z,98767.19
2018-12-02T23:52:52.463Z,98762.41
2018-12-02T23:55:21.515Z,98756.00
2018-12-02T23:57:49.747Z,98758.94
